createdAt,value
2017-03-28T00:00:13.637Z,8.84
2017-03-28T00:00:54.132Z,8.73
2017-03-28T00:01:34.646Z,8.84
2017-03-28T00:02:15.152Z,8.86
2017-03-28T00:02:55.693Z,8.73
2017-03-28T00:03:36.191Z,8.73
2017-03-28T00:04:16.690Z,8.74
2017-03-28T00:04:57.202Z,8.83
2017-03-28T00:05:37.714Z,8.76
2017-03-28T00:06:18.235Z,8.8
2017-03-28T00:06:58.748Z,8.79
2017-03-28T00:07:39.253Z,8.77
2017-03-28T00:08:19.761Z,8.79
2017-03-28T00:09:00.258Z,8.76
2017-03-28T00:09:40.763Z,8.7
2017-03-28T00:10:21.267Z,8.68
2017-03-28T00:11:01.784Z,8.8
2017-03-28T00:11:42.289Z,8.76
2017-03-28T00:12:22.805Z,8.76
2017-03-28T00:13:03.344Z,8.76
2017-03-28T00:13:43.844Z,8.76
2017-03-28T00:14:24.375Z,8.84
2017-03-28T00:15:04.875Z,8.77
2017-03-28T00:15:45.390Z,8.81
2017-03-28T00:16:25.903Z,8.87
2017-03-28T00:17:06.419Z,8.81
2017-03-28T00:17:46.931Z,8.86
2017-03-28T00:18:27.433Z,8.89
2017-03-28T00:19:07.953Z,8.89
2017-03-28T00:19:48.457Z,8.89
2017-03-28T00:20:28.966Z,8.86
2017-03-28T00:21:09.481Z,8.89
2017-03-28T00:21:49.990Z,8.84
2017-03-28T00:22:30.501Z,8.91
2017-03-28T00:23:11.009Z,8.89
2017-03-28T00:23:51.517Z,8.92
2017-03-28T00:24:32.024Z,8.92
2017-03-28T00:25:12.535Z,8.92
2017-03-28T00:25:53.045Z,8.94
2017-03-28T00:26:33.574Z,8.87
2017-03-28T00:27:14.066Z,8.87
2017-03-28T00:27:54.579Z,8.81
2017-03-28T00:28:35.073Z,8.77
2017-03-28T00:29:15.583Z,8.84
2017-03-28T00:29:56.100Z,8.77
2017-03-28T00:30:36.645Z,8.86
2017-03-28T00:31:17.145Z,8.94
2017-03-28T00:31:57.656Z,8.92
2017-03-28T00:32:38.187Z,8.92
2017-03-28T00:33:18.722Z,8.96
2017-03-28T00:33:59.225Z,8.91
2017-03-28T00:34:39.729Z,8.92
2017-03-28T00:35:20.240Z,8.89
2017-03-28T00:36:00.749Z,8.99
2017-03-28T00:36:41.260Z,8.91
2017-03-28T00:37:21.754Z,8.95
2017-03-28T00:38:02.253Z,8.99
2017-03-28T00:38:42.768Z,8.92
2017-03-28T00:39:23.283Z,8.95
2017-03-28T00:40:03.784Z,8.89
2017-03-28T00:40:44.300Z,8.95
2017-03-28T00:41:24.824Z,8.92
2017-03-28T00:42:05.329Z,8.87
2017-03-28T00:42:45.831Z,8.95
2017-03-28T00:43:26.389Z,8.94
2017-03-28T00:44:06.897Z,8.91
2017-03-28T00:46:01.034Z,8.91
2017-03-28T00:46:41.428Z,8.87
2017-03-28T00:47:21.919Z,8.92
2017-03-28T00:48:02.419Z,8.84
2017-03-28T00:48:42.939Z,8.76
2017-03-28T00:49:23.457Z,8.77
2017-03-28T00:50:03.975Z,8.84
2017-03-28T00:50:44.473Z,8.76
2017-03-28T00:51:24.985Z,8.81
2017-03-28T00:52:05.500Z,8.77
2017-03-28T00:52:46.006Z,8.7
2017-03-28T00:53:26.508Z,8.71
2017-03-28T00:54:07.012Z,8.73
2017-03-28T00:54:47.523Z,8.66
2017-03-28T00:55:28.070Z,8.7
2017-03-28T00:56:08.605Z,8.65
2017-03-28T00:56:49.092Z,8.55
2017-03-28T00:57:29.580Z,8.55
2017-03-28T00:58:10.102Z,8.55
2017-03-28T00:58:50.631Z,8.48
2017-03-28T00:59:31.119Z,8.5
2017-03-28T01:00:11.639Z,8.43
2017-03-28T01:00:52.145Z,8.41
2017-03-28T01:01:32.650Z,8.36
2017-03-28T01:02:13.167Z,8.34
2017-03-28T01:02:53.684Z,8.3
2017-03-28T01:03:34.211Z,8.36
2017-03-28T01:04:14.738Z,8.28
2017-03-28T01:04:55.206Z,8.23
2017-03-28T01:05:35.719Z,8.19
2017-03-28T01:06:16.226Z,8.19
2017-03-28T01:06:56.742Z,8.16
2017-03-28T01:07:37.264Z,8.12
2017-03-28T01:08:17.783Z,8.19
2017-03-28T01:08:58.297Z,8.08
2017-03-28T01:09:38.820Z,8.1
2017-03-28T01:10:19.368Z,8.1
2017-03-28T01:10:59.870Z,8.12
2017-03-28T01:11:40.368Z,8.07
2017-03-28T01:12:20.884Z,8.15
2017-03-28T01:13:01.377Z,8.12
2017-03-28T01:13:41.896Z,8.08
2017-03-28T01:14:22.401Z,8.26
2017-03-28T01:15:02.911Z,8.11
2017-03-28T01:15:43.418Z,8.11
2017-03-28T01:16:23.932Z,8.12
2017-03-28T01:17:04.451Z,8.07
2017-03-28T01:17:44.945Z,8.12
2017-03-28T01:18:25.441Z,8.1
2017-03-28T01:19:05.951Z,8.08
2017-03-28T01:19:46.421Z,8.19
2017-03-28T01:20:26.943Z,8.16
2017-03-28T01:21:07.454Z,8.18
2017-03-28T01:21:47.967Z,8.1
2017-03-28T01:22:28.476Z,8.11
2017-03-28T01:23:09.008Z,8.1
2017-03-28T01:23:49.495Z,8.15
2017-03-28T01:24:29.999Z,8.08
2017-03-28T01:25:10.517Z,8.16
2017-03-28T01:25:51.039Z,8.2
2017-03-28T01:26:31.552Z,8.08
2017-03-28T01:27:12.074Z,8.15
2017-03-28T01:27:52.582Z,8.12
2017-03-28T01:28:33.097Z,8.15
2017-03-28T01:29:13.612Z,8.23
2017-03-28T01:29:54.105Z,8.11
2017-03-28T01:30:34.608Z,8.16
2017-03-28T01:31:15.130Z,8.15
2017-03-28T01:31:55.639Z,8.15
2017-03-28T01:32:36.150Z,8.15
2017-03-28T01:33:16.678Z,8.15
2017-03-28T01:33:57.208Z,8.18
2017-03-28T01:34:37.721Z,8.1
2017-03-28T01:35:18.244Z,8.11
2017-03-28T01:35:58.747Z,8.08
2017-03-28T01:36:39.269Z,8.1
2017-03-28T01:37:19.779Z,8.12
2017-03-28T01:38:00.287Z,8.08
2017-03-28T01:38:40.788Z,8.1
2017-03-28T01:39:21.312Z,8.15
2017-03-28T01:40:01.800Z,8.11
2017-03-28T01:40:42.356Z,8.15
2017-03-28T01:41:22.823Z,8.12
2017-03-28T01:42:03.370Z,8.12
2017-03-28T01:42:43.863Z,8.08
2017-03-28T01:43:24.362Z,8.12
2017-03-28T01:44:04.883Z,8.12
2017-03-28T01:44:45.393Z,8.08
2017-03-28T01:45:25.917Z,8.08
2017-03-28T01:46:06.437Z,8.1
2017-03-28T01:46:46.932Z,8.11
2017-03-28T01:47:27.460Z,8.11
2017-03-28T01:48:07.962Z,8.08
2017-03-28T01:48:48.460Z,8.12
2017-03-28T01:49:28.969Z,8.05
2017-03-28T01:50:09.467Z,8.11
2017-03-28T01:50:49.973Z,8.1
2017-03-28T01:51:30.488Z,8.1
2017-03-28T01:52:10.980Z,8.12
2017-03-28T01:52:51.476Z,8.11
2017-03-28T01:53:32.005Z,8.16
2017-03-28T01:54:12.514Z,8.1
2017-03-28T01:54:53.028Z,8.16
2017-03-28T01:55:33.544Z,8.23
2017-03-28T01:56:14.060Z,8.22
2017-03-28T01:56:54.574Z,8.19
2017-03-28T01:57:35.084Z,8.18
2017-03-28T01:58:15.588Z,8.16
2017-03-28T01:58:56.113Z,8.18
2017-03-28T01:59:36.624Z,8.23
2017-03-28T02:00:17.138Z,8.25
2017-03-28T02:00:57.647Z,8.25
2017-03-28T02:01:38.157Z,8.1
2017-03-28T02:02:18.671Z,8.23
2017-03-28T02:02:59.203Z,8.26
2017-03-28T02:03:39.716Z,8.25
2017-03-28T02:04:20.222Z,8.28
2017-03-28T02:05:00.708Z,8.23
2017-03-28T02:05:41.213Z,8.23
2017-03-28T02:06:21.730Z,8.19
2017-03-28T02:07:02.227Z,8.19
2017-03-28T02:07:42.743Z,8.19
2017-03-28T02:08:23.254Z,8.25
2017-03-28T02:09:03.761Z,8.12
2017-03-28T02:09:44.268Z,8.22
2017-03-28T02:10:24.774Z,8.25
2017-03-28T02:11:05.313Z,8.19
2017-03-28T02:11:45.839Z,8.18
2017-03-28T02:12:26.344Z,8.12
2017-03-28T02:13:06.854Z,8.16
2017-03-28T02:13:47.368Z,8.05
2017-03-28T02:14:27.876Z,8.05
2017-03-28T02:15:08.386Z,8.05
2017-03-28T02:15:48.910Z,8.12
2017-03-28T02:16:29.416Z,8.04
2017-03-28T02:17:09.914Z,8.1
2017-03-28T02:17:50.425Z,8.05
2017-03-28T02:18:30.935Z,8.02
2017-03-28T02:19:11.452Z,8.11
2017-03-28T02:19:51.956Z,8
2017-03-28T02:20:32.490Z,8
2017-03-28T02:21:13.020Z,7.95
2017-03-28T02:21:53.526Z,7.95
2017-03-28T02:22:34.039Z,7.95
2017-03-28T02:23:14.537Z,8.05
2017-03-28T02:23:55.039Z,8.01
2017-03-28T02:24:35.540Z,7.98
2017-03-28T02:25:16.058Z,7.95
2017-03-28T02:25:56.557Z,7.87
2017-03-28T02:26:37.082Z,7.8
2017-03-28T02:27:17.588Z,7.92
2017-03-28T02:27:58.097Z,7.85
2017-03-28T02:28:38.609Z,7.82
2017-03-28T02:29:19.120Z,7.79
2017-03-28T02:29:59.631Z,7.8
2017-03-28T02:30:40.150Z,7.74
2017-03-28T02:31:20.664Z,7.75
2017-03-28T02:32:01.176Z,7.64
2017-03-28T02:32:41.692Z,7.69
2017-03-28T02:33:22.211Z,7.72
2017-03-28T02:34:02.723Z,7.67
2017-03-28T02:34:43.225Z,7.72
2017-03-28T02:35:23.723Z,7.63
2017-03-28T02:36:04.233Z,7.74
2017-03-28T02:36:44.745Z,7.67
2017-03-28T02:37:25.285Z,7.64
2017-03-28T02:38:05.787Z,7.61
2017-03-28T02:38:46.316Z,7.58
2017-03-28T02:39:26.826Z,7.58
2017-03-28T02:40:07.349Z,7.57
2017-03-28T02:40:47.840Z,7.55
2017-03-28T02:41:28.367Z,7.5
2017-03-28T02:42:08.873Z,7.53
2017-03-28T02:42:49.394Z,7.5
2017-03-28T02:43:29.897Z,7.52
2017-03-28T02:44:10.414Z,7.57
2017-03-28T02:44:50.940Z,7.53
2017-03-28T02:45:31.473Z,7.53
2017-03-28T02:46:11.986Z,7.53
2017-03-28T02:46:52.512Z,7.55
2017-03-28T02:47:32.981Z,7.48
2017-03-28T02:48:13.487Z,7.57
2017-03-28T02:48:53.982Z,7.52
2017-03-28T02:49:34.490Z,7.5
2017-03-28T02:50:15.014Z,7.57
2017-03-28T02:50:55.523Z,7.48
2017-03-28T02:51:36.042Z,7.5
2017-03-28T02:52:16.560Z,7.5
2017-03-28T02:52:57.084Z,7.52
2017-03-28T02:53:37.590Z,7.48
2017-03-28T02:54:18.136Z,7.57
2017-03-28T02:54:58.624Z,7.48
2017-03-28T02:55:39.120Z,7.53
2017-03-28T02:56:19.653Z,7.52
2017-03-28T02:57:00.150Z,7.46
2017-03-28T02:57:40.669Z,7.49
2017-03-28T02:58:21.186Z,7.52
2017-03-28T02:59:01.695Z,7.49
2017-03-28T02:59:42.204Z,7.5
2017-03-28T03:00:22.720Z,7.43
2017-03-28T03:01:03.212Z,7.46
2017-03-28T03:01:43.728Z,7.43
2017-03-28T03:02:24.237Z,7.34
2017-03-28T03:03:04.766Z,7.43
2017-03-28T03:03:45.272Z,7.3
2017-03-28T03:04:25.783Z,7.3
2017-03-28T03:05:06.298Z,7.27
2017-03-28T03:05:46.830Z,7.34
2017-03-28T03:06:27.313Z,7.27
2017-03-28T03:07:07.814Z,7.32
2017-03-28T03:07:48.322Z,7.3
2017-03-28T03:08:28.836Z,7.34
2017-03-28T03:09:09.347Z,7.32
2017-03-28T03:09:49.865Z,7.31
2017-03-28T03:10:30.372Z,7.17
2017-03-28T03:11:10.884Z,7.21
2017-03-28T03:11:51.396Z,7.17
2017-03-28T03:12:31.900Z,7.17
2017-03-28T03:13:12.387Z,7.27
2017-03-28T03:13:52.904Z,7.24
2017-03-28T03:14:33.413Z,7.28
2017-03-28T03:15:13.914Z,7.28
2017-03-28T03:15:54.424Z,7.17
2017-03-28T03:16:34.937Z,7.28
2017-03-28T03:17:15.483Z,7.15
2017-03-28T03:17:55.953Z,7.25
2017-03-28T03:18:36.478Z,7.24
2017-03-28T03:19:17.017Z,7.21
2017-03-28T03:19:57.598Z,7.21
2017-03-28T03:20:38.134Z,7.23
2017-03-28T03:21:18.683Z,7.21
2017-03-28T03:21:59.196Z,7.23
2017-03-28T03:22:39.708Z,7.2
2017-03-28T03:23:20.237Z,7.17
2017-03-28T03:24:00.740Z,7.16
2017-03-28T03:24:41.251Z,7.15
2017-03-28T03:25:21.735Z,7.23
2017-03-28T03:26:02.246Z,7.15
2017-03-28T03:26:42.787Z,7.13
2017-03-28T03:27:23.312Z,7.21
2017-03-28T03:28:03.817Z,7.27
2017-03-28T03:28:44.362Z,7.16
2017-03-28T03:29:24.866Z,7.27
2017-03-28T03:30:05.359Z,7.16
2017-03-28T03:30:45.889Z,7.27
2017-03-28T03:31:26.409Z,7.25
2017-03-28T03:32:06.942Z,7.24
2017-03-28T03:32:47.452Z,7.17
2017-03-28T03:33:27.968Z,7.23
2017-03-28T03:34:08.490Z,7.28
2017-03-28T03:34:48.986Z,7.13
2017-03-28T03:35:29.527Z,7.28
2017-03-28T03:36:10.084Z,7.21
2017-03-28T03:36:50.577Z,7.16
2017-03-28T03:37:31.072Z,7.13
2017-03-28T03:38:11.605Z,7.25
2017-03-28T03:38:52.177Z,7.25
2017-03-28T03:39:32.718Z,7.2
2017-03-28T03:40:13.253Z,7.21
2017-03-28T03:40:53.745Z,7.21
2017-03-28T03:41:34.270Z,7.21
2017-03-28T03:42:14.814Z,7.24
2017-03-28T03:42:55.351Z,7.2
2017-03-28T03:43:35.860Z,7.24
2017-03-28T03:44:16.419Z,7.21
2017-03-28T03:44:56.982Z,7.25
2017-03-28T03:45:37.480Z,7.25
2017-03-28T03:46:18.062Z,7.17
2017-03-28T03:46:58.666Z,7.17
2017-03-28T03:47:39.235Z,7.2
2017-03-28T03:48:19.717Z,7.21
2017-03-28T03:49:00.298Z,7.23
2017-03-28T03:49:40.816Z,7.23
2017-03-28T03:50:21.346Z,7.16
2017-03-28T03:51:01.827Z,7.2
2017-03-28T03:51:42.354Z,7.21
2017-03-28T03:52:22.971Z,7.16
2017-03-28T03:53:03.465Z,7.17
2017-03-28T03:53:44.791Z,7.2
2017-03-28T03:54:25.546Z,7.27
2017-03-28T03:55:06.052Z,7.3
2017-03-28T03:55:46.570Z,7.17
2017-03-28T03:56:27.085Z,7.2
2017-03-28T03:57:07.579Z,7.27
2017-03-28T03:57:48.084Z,7.16
2017-03-28T03:58:28.617Z,7.17
2017-03-28T03:59:09.100Z,7.2
2017-03-28T03:59:49.645Z,7.27
2017-03-28T04:00:30.136Z,7.17
2017-03-28T04:01:10.683Z,7.21
2017-03-28T04:01:51.179Z,7.2
2017-03-28T04:02:31.729Z,7.2
2017-03-28T04:03:12.280Z,7.2
2017-03-28T04:03:52.865Z,7.25
2017-03-28T04:04:33.362Z,7.2
2017-03-28T04:05:13.877Z,7.21
2017-03-28T04:05:54.566Z,7.21
2017-03-28T04:06:35.093Z,7.17
2017-03-28T04:07:15.605Z,7.15
2017-03-28T04:07:56.090Z,7.16
2017-03-28T04:08:36.608Z,7.24
2017-03-28T04:09:17.112Z,7.25
2017-03-28T04:09:57.616Z,7.2
2017-03-28T04:10:38.107Z,7.17
2017-03-28T04:11:18.636Z,7.2
2017-03-28T04:11:59.130Z,7.17
2017-03-28T04:12:39.614Z,7.23
2017-03-28T04:13:20.138Z,7.28
2017-03-28T04:14:00.695Z,7.16
2017-03-28T04:14:41.250Z,7.21
2017-03-28T04:15:21.740Z,7.23
2017-03-28T04:16:02.304Z,7.27
2017-03-28T04:16:42.830Z,7.25
2017-03-28T04:17:23.371Z,7.15
2017-03-28T04:18:03.889Z,7.28
2017-03-28T04:18:44.459Z,7.2
2017-03-28T04:19:25.009Z,7.23
2017-03-28T04:20:05.497Z,7.23
2017-03-28T04:20:46.045Z,7.17
2017-03-28T04:21:26.550Z,7.23
2017-03-28T04:22:07.062Z,7.25
2017-03-28T04:22:47.609Z,7.21
2017-03-28T04:23:28.107Z,7.15
2017-03-28T04:24:08.645Z,7.17
2017-03-28T04:24:49.120Z,7.16
2017-03-28T04:25:29.669Z,7.2
2017-03-28T04:26:10.212Z,7.13
2017-03-28T04:26:50.705Z,7.15
2017-03-28T04:27:31.256Z,7.21
2017-03-28T04:28:11.813Z,7.15
2017-03-28T04:28:52.333Z,7.16
2017-03-28T04:29:32.863Z,7.16
2017-03-28T04:30:13.413Z,7.1
2017-03-28T04:30:53.988Z,7.2
2017-03-28T04:31:34.538Z,7.15
2017-03-28T04:32:15.080Z,7.15
2017-03-28T04:32:55.656Z,7.2
2017-03-28T04:33:36.276Z,7.24
2017-03-28T04:34:16.961Z,7.15
2017-03-28T04:34:57.439Z,7.17
2017-03-28T04:35:37.969Z,7.15
2017-03-28T04:36:18.493Z,7.16
2017-03-28T04:36:59.044Z,7.23
2017-03-28T04:37:39.519Z,7.15
2017-03-28T04:38:20.055Z,7.21
2017-03-28T04:39:00.632Z,7.15
2017-03-28T04:39:41.213Z,7.06
2017-03-28T04:40:21.724Z,7.16
2017-03-28T04:41:02.229Z,7.06
2017-03-28T04:41:42.716Z,7.06
2017-03-28T04:42:23.292Z,7.1
2017-03-28T04:43:03.802Z,7.05
2017-03-28T04:43:44.349Z,6.97
2017-03-28T04:44:24.852Z,7.07
2017-03-28T04:45:05.413Z,6.98
2017-03-28T04:45:45.921Z,6.99
2017-03-28T04:46:26.450Z,7.06
2017-03-28T04:47:06.934Z,6.91
2017-03-28T04:47:47.444Z,6.95
2017-03-28T04:48:28.002Z,6.95
2017-03-28T04:49:08.527Z,6.91
2017-03-28T04:49:49.086Z,6.97
2017-03-28T04:50:29.722Z,6.95
2017-03-28T04:51:10.238Z,6.91
2017-03-28T04:51:50.752Z,6.91
2017-03-28T04:52:31.270Z,6.97
2017-03-28T04:53:11.769Z,6.97
2017-03-28T04:53:52.332Z,6.95
2017-03-28T04:54:32.814Z,6.95
2017-03-28T04:55:13.329Z,6.94
2017-03-28T04:55:53.837Z,6.92
2017-03-28T04:56:34.386Z,6.92
2017-03-28T04:57:14.934Z,6.99
2017-03-28T04:57:55.500Z,6.91
2017-03-28T04:58:36.021Z,6.91
2017-03-28T04:59:16.491Z,6.97
2017-03-28T04:59:57.023Z,6.97
2017-03-28T05:00:37.542Z,6.97
2017-03-28T05:01:18.033Z,6.97
2017-03-28T05:01:58.564Z,6.89
2017-03-28T05:02:39.126Z,6.88
2017-03-28T05:03:19.617Z,6.98
2017-03-28T05:04:00.099Z,6.97
2017-03-28T05:04:40.664Z,6.91
2017-03-28T05:05:21.147Z,6.89
2017-03-28T05:06:01.675Z,6.92
2017-03-28T05:06:42.240Z,6.89
2017-03-28T05:07:22.776Z,6.8
2017-03-28T05:08:03.297Z,6.87
2017-03-28T05:08:43.814Z,6.79
2017-03-28T05:09:24.390Z,6.91
2017-03-28T05:10:04.880Z,6.79
2017-03-28T05:10:45.435Z,6.74
2017-03-28T05:11:26.000Z,6.79
2017-03-28T05:12:06.464Z,6.81
2017-03-28T05:12:47.101Z,6.85
2017-03-28T05:13:27.525Z,6.85
2017-03-28T05:14:08.122Z,6.89
2017-03-28T05:14:48.606Z,6.87
2017-03-28T05:15:29.172Z,6.88
2017-03-28T05:16:09.669Z,6.88
2017-03-28T05:16:50.193Z,6.8
2017-03-28T05:17:30.776Z,6.87
2017-03-28T05:18:11.227Z,6.88
2017-03-28T05:18:51.714Z,6.84
2017-03-28T05:19:32.248Z,6.81
2017-03-28T05:20:12.860Z,6.87
2017-03-28T05:20:53.427Z,6.85
2017-03-28T05:21:33.982Z,6.88
2017-03-28T05:22:14.524Z,6.84
2017-03-28T05:22:55.052Z,6.95
2017-03-28T05:23:35.598Z,6.92
2017-03-28T05:24:16.116Z,6.79
2017-03-28T05:24:56.610Z,6.8
2017-03-28T05:25:37.112Z,6.84
2017-03-28T05:26:17.610Z,6.85
2017-03-28T05:26:58.390Z,6.81
2017-03-28T05:27:38.887Z,6.88
2017-03-28T05:28:19.436Z,6.87
2017-03-28T05:28:59.937Z,6.73
2017-03-28T05:29:40.458Z,6.76
2017-03-28T05:30:20.960Z,6.89
2017-03-28T05:31:01.479Z,6.76
2017-03-28T05:31:41.998Z,6.88
2017-03-28T05:32:22.491Z,6.79
2017-03-28T05:33:03.004Z,6.89
2017-03-28T05:33:43.503Z,6.92
2017-03-28T05:34:24.006Z,6.8
2017-03-28T05:35:04.521Z,6.88
2017-03-28T05:35:45.033Z,6.88
2017-03-28T05:36:25.548Z,6.91
2017-03-28T05:37:06.057Z,6.87
2017-03-28T05:37:46.579Z,6.98
2017-03-28T05:38:27.078Z,6.97
2017-03-28T05:39:07.591Z,6.97
2017-03-28T05:39:48.157Z,6.98
2017-03-28T05:40:28.650Z,6.99
2017-03-28T05:41:09.169Z,6.97
2017-03-28T05:41:49.702Z,6.97
2017-03-28T05:42:30.202Z,6.99
2017-03-28T05:43:10.776Z,6.94
2017-03-28T05:43:51.284Z,6.94
2017-03-28T05:44:31.789Z,6.92
2017-03-28T05:45:12.294Z,6.98
2017-03-28T05:45:52.800Z,6.95
2017-03-28T05:46:33.350Z,6.97
2017-03-28T05:47:13.835Z,6.92
2017-03-28T05:47:54.316Z,6.97
2017-03-28T05:48:34.815Z,6.94
2017-03-28T05:49:15.321Z,6.94
2017-03-28T05:49:55.936Z,7.03
2017-03-28T05:50:36.781Z,6.97
2017-03-28T05:51:17.282Z,7.06
2017-03-28T05:51:57.825Z,7.06
2017-03-28T05:52:38.313Z,6.99
2017-03-28T05:53:18.830Z,7.09
2017-03-28T05:53:59.368Z,7.07
2017-03-28T05:54:39.873Z,7.06
2017-03-28T05:55:20.392Z,7.1
2017-03-28T05:56:00.898Z,7.06
2017-03-28T05:56:41.411Z,7.1
2017-03-28T05:57:21.931Z,7.16
2017-03-28T05:58:02.425Z,7.13
2017-03-28T05:58:42.949Z,7.16
2017-03-28T05:59:23.467Z,7.2
2017-03-28T06:00:03.963Z,7.2
2017-03-28T06:00:44.513Z,7.17
2017-03-28T06:01:24.999Z,7.25
2017-03-28T06:02:05.521Z,7.13
2017-03-28T06:02:46.022Z,7.16
2017-03-28T06:03:26.542Z,7.09
2017-03-28T06:04:07.047Z,7.15
2017-03-28T06:04:47.586Z,7.16
2017-03-28T06:05:28.067Z,7.17
2017-03-28T06:06:08.608Z,7.15
2017-03-28T06:06:49.112Z,7.16
2017-03-28T06:07:29.625Z,7.16
2017-03-28T06:08:10.119Z,7.24
2017-03-28T06:08:50.609Z,7.21
2017-03-28T06:09:31.138Z,7.16
2017-03-28T06:10:11.644Z,7.23
2017-03-28T06:10:52.146Z,7.16
2017-03-28T06:11:32.663Z,7.16
2017-03-28T06:12:13.165Z,7.28
2017-03-28T06:12:53.714Z,7.2
2017-03-28T06:13:34.233Z,7.31
2017-03-28T06:14:14.757Z,7.25
2017-03-28T06:14:55.284Z,7.31
2017-03-28T06:15:35.785Z,7.23
2017-03-28T06:16:16.306Z,7.32
2017-03-28T06:16:56.932Z,7.27
2017-03-28T06:17:37.583Z,7.27
2017-03-28T06:18:18.074Z,7.28
2017-03-28T06:18:58.613Z,7.35
2017-03-28T06:19:39.092Z,7.31
2017-03-28T06:20:20.047Z,7.32
2017-03-28T06:21:00.716Z,7.31
2017-03-28T06:21:41.218Z,7.32
2017-03-28T06:22:21.750Z,7.34
2017-03-28T06:23:02.278Z,7.35
2017-03-28T06:23:42.804Z,7.39
2017-03-28T06:24:23.330Z,7.4
2017-03-28T06:25:03.855Z,7.45
2017-03-28T06:25:44.347Z,7.45
2017-03-28T06:26:24.954Z,7.43
2017-03-28T06:27:05.492Z,7.57
2017-03-28T06:27:45.995Z,7.52
2017-03-28T06:28:26.521Z,7.5
2017-03-28T06:29:07.021Z,7.6
2017-03-28T06:29:47.550Z,7.55
2017-03-28T06:30:28.056Z,7.61
2017-03-28T06:31:08.636Z,7.61
2017-03-28T06:31:49.155Z,7.74
2017-03-28T06:32:29.663Z,7.63
2017-03-28T06:33:10.188Z,7.67
2017-03-28T06:33:50.688Z,7.67
2017-03-28T06:34:31.208Z,7.63
2017-03-28T06:35:11.759Z,7.71
2017-03-28T06:35:52.220Z,7.74
2017-03-28T06:36:32.743Z,7.74
2017-03-28T06:37:13.236Z,7.8
2017-03-28T06:37:53.741Z,7.86
2017-03-28T06:38:34.281Z,7.85
2017-03-28T06:39:14.769Z,7.79
2017-03-28T06:39:55.274Z,7.89
2017-03-28T06:40:35.787Z,7.92
2017-03-28T06:41:16.293Z,7.97
2017-03-28T06:41:56.846Z,7.92
2017-03-28T06:42:37.369Z,7.9
2017-03-28T06:43:17.887Z,7.87
2017-03-28T06:43:58.392Z,7.92
2017-03-28T06:44:38.907Z,8.01
2017-03-28T06:45:19.417Z,7.98
2017-03-28T06:45:59.921Z,7.95
2017-03-28T06:46:40.426Z,7.97
2017-03-28T06:47:20.935Z,7.97
2017-03-28T06:48:01.434Z,8.04
2017-03-28T06:48:41.933Z,8.1
2017-03-28T06:49:22.447Z,8.01
2017-03-28T06:50:02.962Z,8.1
2017-03-28T06:50:43.474Z,8.11
2017-03-28T06:51:24.020Z,8.11
2017-03-28T06:52:04.483Z,8.12
2017-03-28T06:52:45.017Z,8.2
2017-03-28T06:53:25.494Z,8.23
2017-03-28T06:54:06.039Z,8.26
2017-03-28T06:54:46.523Z,8.26
2017-03-28T06:55:27.041Z,8.28
2017-03-28T06:56:07.540Z,8.33
2017-03-28T06:56:48.029Z,8.4
2017-03-28T06:57:28.522Z,8.37
2017-03-28T06:58:09.037Z,8.5
2017-03-28T06:58:49.541Z,8.5
2017-03-28T06:59:30.064Z,8.44
2017-03-28T07:00:10.609Z,8.45
2017-03-28T07:00:51.103Z,8.5
2017-03-28T07:01:31.608Z,8.55
2017-03-28T07:02:12.220Z,8.5
2017-03-28T07:02:52.727Z,8.5
2017-03-28T07:03:33.277Z,8.73
2017-03-28T07:04:13.838Z,8.66
2017-03-28T07:04:54.349Z,8.59
2017-03-28T07:05:34.860Z,8.62
2017-03-28T07:06:15.362Z,8.8
2017-03-28T07:06:55.891Z,8.65
2017-03-28T07:07:36.380Z,8.68
2017-03-28T07:08:16.885Z,8.77
2017-03-28T07:08:57.415Z,8.76
2017-03-28T07:09:37.922Z,8.8
2017-03-28T07:10:18.443Z,8.76
2017-03-28T07:10:58.924Z,8.84
2017-03-28T07:11:39.463Z,8.83
2017-03-28T07:12:19.951Z,8.91
2017-03-28T07:13:00.476Z,8.95
2017-03-28T07:13:40.971Z,8.92
2017-03-28T07:14:21.491Z,8.99
2017-03-28T07:15:02.010Z,8.95
2017-03-28T07:15:42.520Z,9.11
2017-03-28T07:16:23.024Z,9.05
2017-03-28T07:17:03.547Z,9.04
2017-03-28T07:17:44.064Z,9.08
2017-03-28T07:18:24.571Z,9.02
2017-03-28T07:19:05.097Z,9.17
2017-03-28T07:19:45.617Z,9.2
2017-03-28T07:20:26.134Z,9.23
2017-03-28T07:21:06.645Z,9.21
2017-03-28T07:21:47.147Z,9.24
2017-03-28T07:22:27.674Z,9.28
2017-03-28T07:23:08.190Z,9.31
2017-03-28T07:23:48.707Z,9.32
2017-03-28T07:24:29.198Z,9.31
2017-03-28T07:25:09.700Z,9.29
2017-03-28T07:25:50.206Z,9.42
2017-03-28T07:26:30.740Z,9.39
2017-03-28T07:27:11.222Z,9.47
2017-03-28T07:27:51.719Z,9.46
2017-03-28T07:28:32.249Z,9.47
2017-03-28T07:29:12.742Z,9.47
2017-03-28T07:29:53.272Z,9.51
2017-03-28T07:30:33.774Z,9.48
2017-03-28T07:31:14.319Z,9.51
2017-03-28T07:31:54.821Z,9.54
2017-03-28T07:32:35.336Z,9.6
2017-03-28T07:33:15.844Z,9.65
2017-03-28T07:33:56.368Z,9.61
2017-03-28T07:34:36.864Z,9.65
2017-03-28T07:35:17.388Z,9.72
2017-03-28T07:35:57.909Z,9.74
2017-03-28T07:36:38.398Z,9.87
2017-03-28T07:37:18.917Z,9.71
2017-03-28T07:37:59.428Z,9.79
2017-03-28T07:38:39.952Z,9.83
2017-03-28T07:39:20.491Z,9.84
2017-03-28T07:40:00.998Z,9.94
2017-03-28T07:40:41.522Z,10.02
2017-03-28T07:41:22.037Z,10.04
2017-03-28T07:42:02.556Z,10.01
2017-03-28T07:42:43.056Z,10.04
2017-03-28T07:43:23.583Z,10.08
2017-03-28T07:44:04.100Z,10.05
2017-03-28T07:44:44.610Z,10.12
2017-03-28T07:45:25.140Z,10.23
2017-03-28T07:46:05.696Z,10.27
2017-03-28T07:46:46.206Z,10.32
2017-03-28T07:47:26.704Z,10.29
2017-03-28T07:48:07.202Z,10.34
2017-03-28T07:48:47.721Z,10.38
2017-03-28T07:49:28.233Z,10.44
2017-03-28T07:50:08.751Z,10.45
2017-03-28T07:50:49.244Z,10.52
2017-03-28T07:51:29.764Z,10.52
2017-03-28T07:52:10.301Z,10.63
2017-03-28T07:52:50.831Z,10.59
2017-03-28T07:53:31.339Z,10.7
2017-03-28T07:54:11.839Z,10.7
2017-03-28T07:54:52.358Z,10.73
2017-03-28T07:55:32.858Z,10.84
2017-03-28T07:56:13.383Z,10.82
2017-03-28T07:56:53.895Z,10.81
2017-03-28T07:57:34.418Z,10.86
2017-03-28T07:58:14.935Z,10.92
2017-03-28T07:58:55.453Z,10.85
2017-03-28T07:59:35.983Z,10.92
2017-03-28T08:00:16.485Z,11.03
2017-03-28T08:00:56.992Z,11.03
2017-03-28T08:01:37.554Z,11.15
2017-03-28T08:02:18.036Z,11.18
2017-03-28T08:02:58.548Z,11.19
2017-03-28T08:03:39.094Z,11.25
2017-03-28T08:04:19.582Z,11.35
2017-03-28T08:05:00.109Z,11.36
2017-03-28T08:05:40.610Z,11.32
2017-03-28T08:06:21.129Z,11.42
2017-03-28T08:07:01.792Z,11.39
2017-03-28T08:07:42.337Z,11.54
2017-03-28T08:08:22.844Z,11.54
2017-03-28T08:09:03.378Z,11.64
2017-03-28T08:09:43.907Z,11.65
2017-03-28T08:10:24.436Z,11.72
2017-03-28T08:11:04.961Z,11.72
2017-03-28T08:11:45.501Z,11.79
2017-03-28T08:12:25.987Z,11.9
2017-03-28T08:13:06.498Z,11.95
2017-03-28T08:13:47.015Z,12.05
2017-03-28T08:14:27.526Z,12.09
2017-03-28T08:15:08.056Z,12.13
2017-03-28T08:15:48.548Z,12.21
2017-03-28T08:16:29.067Z,12.37
2017-03-28T08:17:09.609Z,12.37
2017-03-28T08:17:50.095Z,12.47
2017-03-28T08:18:30.610Z,12.53
2017-03-28T08:19:11.139Z,12.62
2017-03-28T08:19:51.641Z,12.6
2017-03-28T08:20:32.156Z,12.7
2017-03-28T08:21:12.674Z,12.7
2017-03-28T08:21:53.210Z,12.82
2017-03-28T08:22:33.710Z,12.9
2017-03-28T08:24:22.764Z,12.96
2017-03-28T08:25:03.297Z,13.03
2017-03-28T08:25:43.751Z,13.1
2017-03-28T08:26:24.271Z,13.14
2017-03-28T08:27:04.777Z,13.22
2017-03-28T08:27:45.301Z,13.15
2017-03-28T08:28:25.803Z,13.29
2017-03-28T08:29:06.326Z,13.28
2017-03-28T08:29:46.860Z,13.42
2017-03-28T08:30:27.348Z,13.39
2017-03-28T08:31:07.869Z,13.48
2017-03-28T08:31:48.381Z,13.55
2017-03-28T08:32:28.903Z,13.52
2017-03-28T08:33:09.402Z,13.66
2017-03-28T08:33:49.915Z,13.82
2017-03-28T08:34:30.407Z,13.87
2017-03-28T08:35:10.934Z,13.84
2017-03-28T08:35:51.454Z,13.92
2017-03-28T08:36:31.970Z,14.02
2017-03-28T08:37:12.468Z,14.02
2017-03-28T08:37:53.003Z,14.14
2017-03-28T08:38:33.510Z,14.1
2017-03-28T08:39:14.042Z,14.18
2017-03-28T08:39:54.558Z,14.22
2017-03-28T08:40:35.076Z,14.29
2017-03-28T08:41:15.597Z,14.42
2017-03-28T08:41:56.138Z,14.51
2017-03-28T08:42:36.674Z,14.52
2017-03-28T08:43:17.209Z,14.61
2017-03-28T08:43:57.703Z,14.61
2017-03-28T08:44:38.208Z,14.7
2017-03-28T08:45:18.729Z,14.77
2017-03-28T08:45:59.244Z,14.81
2017-03-28T08:46:39.785Z,14.96
2017-03-28T08:47:20.275Z,15.03
2017-03-28T08:48:00.788Z,15.09
2017-03-28T08:48:41.301Z,15.25
2017-03-28T08:49:21.828Z,15.32
2017-03-28T08:50:02.348Z,15.44
2017-03-28T08:50:42.866Z,15.5
2017-03-28T08:51:23.383Z,15.57
2017-03-28T08:52:03.893Z,15.76
2017-03-28T08:52:44.425Z,15.9
2017-03-28T08:53:24.914Z,16
2017-03-28T08:54:05.483Z,15.97
2017-03-28T08:54:46.008Z,16.07
2017-03-28T08:55:26.522Z,16.3
2017-03-28T08:56:07.046Z,16.33
2017-03-28T08:56:47.564Z,16.45
2017-03-28T08:57:28.092Z,16.52
2017-03-28T08:58:08.644Z,16.58
2017-03-28T08:58:49.141Z,16.64
2017-03-28T08:59:29.655Z,16.7
2017-03-28T09:00:10.157Z,16.7
2017-03-28T09:00:50.663Z,16.68
2017-03-28T09:01:31.216Z,16.79